createdAt,value
2023-11-07T00:01:54.762Z,50.59
2023-11-07T00:04:22.399Z,51.55
2023-11-07T00:06:51.528Z,51.85
2023-11-07T00:09:19.310Z,50.84
2023-11-07T00:11:47.945Z,50.86
2023-11-07T00:14:15.905Z,51.72
2023-11-07T00:16:43.816Z,52.10
2023-11-07T00:19:11.505Z,51.20
2023-11-07T00:21:39.257Z,51.84
2023-11-07T00:24:07.940Z,51.57
2023-11-07T00:26:35.769Z,51.21
2023-11-07T00:29:03.451Z,50.57
2023-11-07T00:31:31.927Z,50.52
2023-11-07T00:33:59.962Z,50.96
2023-11-07T00:36:28.018Z,51.10
2023-11-07T00:38:56.364Z,50.96
2023-11-07T00:41:25.020Z,51.33
2023-11-07T00:43:53.045Z,51.65
2023-11-07T00:46:20.836Z,52.11
2023-11-07T00:48:48.652Z,53.32
2023-11-07T00:51:16.347Z,54.05
2023-11-07T00:53:44.060Z,52.48
2023-11-07T00:56:11.724Z,51.39
2023-11-07T00:58:39.337Z,51.60
2023-11-07T01:01:07.218Z,51.34
2023-11-07T01:03:34.890Z,50.95
2023-11-07T01:06:03.157Z,51.22
2023-11-07T01:08:30.997Z,51.61
2023-11-07T01:10:58.820Z,51.76
2023-11-07T01:13:27.206Z,51.40
2023-11-07T01:15:54.905Z,51.44
2023-11-07T01:18:23.305Z,52.36
2023-11-07T01:20:51.217Z,52.24
2023-11-07T01:23:18.839Z,51.76
2023-11-07T01:25:46.593Z,52.22
2023-11-07T01:28:14.473Z,51.40
2023-11-07T01:30:42.327Z,51.03
2023-11-07T01:33:11.497Z,50.78
2023-11-07T01:35:39.402Z,51.41
2023-11-07T01:38:07.067Z,51.10
2023-11-07T01:40:35.463Z,52.35
2023-11-07T01:43:14.050Z,52.56
2023-11-07T01:45:43.353Z,54.33
2023-11-07T01:48:19.273Z,55.95
2023-11-07T01:50:51.532Z,57.34
2023-11-07T01:53:21.459Z,58.14
2023-11-07T01:55:49.851Z,58.70
2023-11-07T01:58:19.585Z,57.91
2023-11-07T02:00:49.050Z,57.91
2023-11-07T02:03:17.392Z,58.95
2023-11-07T02:05:46.429Z,59.34
2023-11-07T02:08:14.465Z,59.16
2023-11-07T02:10:42.909Z,59.26
2023-11-07T02:13:12.170Z,59.16
2023-11-07T02:15:40.567Z,60.13
2023-11-07T02:18:08.386Z,59.86
2023-11-07T02:20:40.414Z,61.39
2023-11-07T02:23:25.842Z,61.74
2023-11-07T02:25:53.994Z,62.57
2023-11-07T02:28:21.812Z,62.55
2023-11-07T02:30:49.742Z,62.42
2023-11-07T02:33:17.537Z,63.40
2023-11-07T02:35:45.353Z,63.59
2023-11-07T02:38:13.706Z,63.34
2023-11-07T02:40:41.624Z,63.15
2023-11-07T02:43:10.049Z,64.01
2023-11-07T02:45:39.012Z,64.12
2023-11-07T02:48:07.885Z,63.69
2023-11-07T02:50:35.854Z,62.94
2023-11-07T02:53:04.545Z,63.54
2023-11-07T02:55:32.198Z,63.82
2023-11-07T02:57:59.837Z,63.90
2023-11-07T03:00:28.278Z,64.52
2023-11-07T03:02:57.179Z,64.62
2023-11-07T03:05:25.187Z,65.42
2023-11-07T03:07:52.943Z,64.87
2023-11-07T03:10:20.864Z,64.35
2023-11-07T03:12:48.658Z,63.12
2023-11-07T03:15:20.345Z,62.52
2023-11-07T03:17:48.579Z,62.17
2023-11-07T03:20:18.132Z,61.69
2023-11-07T03:22:45.939Z,62.39
2023-11-07T03:25:13.614Z,62.30
2023-11-07T03:27:41.200Z,62.71
2023-11-07T03:30:10.196Z,62.72
2023-11-07T03:32:38.671Z,61.89
2023-11-07T03:35:06.486Z,62.03
2023-11-07T03:37:34.119Z,61.97
2023-11-07T03:40:01.802Z,61.58
2023-11-07T03:42:30.713Z,61.34
2023-11-07T03:44:58.404Z,61.12
2023-11-07T03:47:26.752Z,60.11
2023-11-07T03:49:54.364Z,59.46
2023-11-07T03:52:22.110Z,59.08
2023-11-07T03:54:49.770Z,57.51
2023-11-07T03:57:17.600Z,56.84
2023-11-07T03:59:48.074Z,56.37
2023-11-07T04:02:15.747Z,55.28
2023-11-07T04:04:43.499Z,54.59
2023-11-07T04:07:11.342Z,52.71
2023-11-07T04:09:39.041Z,52.65
2023-11-07T04:12:07.572Z,51.76
2023-11-07T04:14:35.544Z,51.94
2023-11-07T04:17:06.190Z,51.72
2023-11-07T04:19:35.091Z,52.33
2023-11-07T04:22:05.566Z,52.87
2023-11-07T04:24:33.345Z,52.76
2023-11-07T04:27:01.734Z,52.86
2023-11-07T04:29:29.343Z,52.45
2023-11-07T04:31:56.942Z,52.11
2023-11-07T04:34:24.611Z,52.38
2023-11-07T04:36:56.391Z,51.87
2023-11-07T04:39:24.415Z,52.11
2023-11-07T04:41:53.666Z,51.16
2023-11-07T04:44:21.585Z,51.37
2023-11-07T04:46:49.302Z,51.25
2023-11-07T04:49:17.175Z,51.23
2023-11-07T04:51:44.874Z,49.64
2023-11-07T04:54:12.455Z,49.25
2023-11-07T04:56:40.077Z,48.38
2023-11-07T04:59:07.655Z,46.69
2023-11-07T05:01:35.713Z,44.49
2023-11-07T05:04:03.930Z,42.50
2023-11-07T05:06:32.212Z,42.22
2023-11-07T05:09:00.342Z,40.85
2023-11-07T05:11:28.993Z,40.98
2023-11-07T05:13:56.801Z,40.24
2023-11-07T05:16:25.789Z,40.42
2023-11-07T05:18:54.943Z,40.16
2023-11-07T05:21:23.020Z,40.64
2023-11-07T05:23:50.854Z,41.10
2023-11-07T05:26:18.749Z,40.97
2023-11-07T05:28:46.426Z,41.26
2023-11-07T05:31:14.225Z,42.04
2023-11-07T05:33:43.422Z,42.04
2023-11-07T05:36:11.375Z,42.00
2023-11-07T05:38:40.184Z,41.29
2023-11-07T05:41:12.589Z,41.66
2023-11-07T05:43:44.401Z,41.04
2023-11-07T05:46:12.648Z,40.62
2023-11-07T05:48:41.151Z,40.41
2023-11-07T05:51:09.842Z,39.03
2023-11-07T05:53:37.537Z,38.68
2023-11-07T05:56:06.367Z,38.54
2023-11-07T05:58:34.150Z,37.71
2023-11-07T06:01:01.884Z,38.10
2023-11-07T06:03:29.684Z,36.96
2023-11-07T06:05:57.578Z,36.82
2023-11-07T06:08:25.373Z,35.95
2023-11-07T06:10:53.074Z,35.74
2023-11-07T06:13:20.679Z,34.97
2023-11-07T06:15:48.318Z,35.24
2023-11-07T06:18:16.213Z,34.33
2023-11-07T06:20:44.131Z,33.85
2023-11-07T06:23:12.333Z,33.51
2023-11-07T06:25:40.190Z,33.22
2023-11-07T06:28:09.919Z,32.46
2023-11-07T06:30:38.990Z,32.36
2023-11-07T06:33:06.974Z,31.31
2023-11-07T06:35:35.255Z,31.30
2023-11-07T06:38:03.203Z,31.15
2023-11-07T06:40:30.874Z,30.93
2023-11-07T06:42:59.323Z,31.23
2023-11-07T06:45:26.992Z,31.61
2023-11-07T06:47:55.427Z,31.09
2023-11-07T06:50:23.134Z,31.38
2023-11-07T06:52:52.896Z,31.04
2023-11-07T06:55:26.803Z,30.89
2023-11-07T06:57:57.124Z,31.06
2023-11-07T07:00:28.463Z,31.15
2023-11-07T07:02:58.139Z,31.20
2023-11-07T07:05:27.510Z,31.62
2023-11-07T07:07:56.243Z,31.46
2023-11-07T07:10:25.343Z,31.74
2023-11-07T07:12:52.972Z,32.36
2023-11-07T07:15:20.949Z,32.53
2023-11-07T07:17:48.745Z,32.51
2023-11-07T07:20:16.485Z,32.31
2023-11-07T07:22:45.961Z,32.53
2023-11-07T07:25:22.012Z,32.63
2023-11-07T07:27:51.710Z,32.85
2023-11-07T07:30:27.790Z,33.41
2023-11-07T07:32:56.958Z,34.10
2023-11-07T07:35:24.877Z,35.08
2023-11-07T07:37:55.121Z,35.31
2023-11-07T07:40:27.763Z,35.23
2023-11-07T07:42:59.795Z,35.35
2023-11-07T07:45:28.107Z,35.45
2023-11-07T07:47:58.670Z,35.42
2023-11-07T07:50:26.939Z,35.68
2023-11-07T07:52:57.799Z,35.70
2023-11-07T07:55:34.983Z,36.24
2023-11-07T07:58:04.971Z,36.51
2023-11-07T08:00:33.045Z,36.35
2023-11-07T08:03:08.648Z,36.68
2023-11-07T08:05:42.045Z,37.12
2023-11-07T08:08:12.680Z,37.49
2023-11-07T08:10:41.084Z,37.83
2023-11-07T08:13:11.781Z,38.17
2023-11-07T08:15:39.603Z,38.44
2023-11-07T08:18:10.386Z,38.96
2023-11-07T08:20:40.215Z,39.14
2023-11-07T08:23:08.377Z,39.11
2023-11-07T08:25:36.365Z,39.03
2023-11-07T08:28:11.427Z,39.25
2023-11-07T08:30:39.701Z,39.57
2023-11-07T08:33:09.306Z,39.66
2023-11-07T08:35:40.258Z,40.19
2023-11-07T08:38:08.449Z,40.53
2023-11-07T08:40:36.924Z,40.50
2023-11-07T08:43:04.906Z,40.90
2023-11-07T08:45:34.778Z,41.25
2023-11-07T08:48:03.327Z,41.23
2023-11-07T08:50:31.260Z,41.75
2023-11-07T08:52:59.170Z,42.00
2023-11-07T08:55:28.843Z,41.95
2023-11-07T08:57:56.843Z,41.73
2023-11-07T09:00:25.028Z,41.91
2023-11-07T09:02:54.305Z,42.33
2023-11-07T09:05:23.406Z,42.05
2023-11-07T09:07:52.159Z,42.23
2023-11-07T09:10:21.916Z,42.58
2023-11-07T09:12:49.788Z,42.56
2023-11-07T09:15:21.866Z,42.99
2023-11-07T09:17:50.045Z,42.99
2023-11-07T09:20:17.837Z,43.39
2023-11-07T09:22:45.938Z,43.35
2023-11-07T09:25:14.432Z,43.65
2023-11-07T09:27:42.307Z,44.04
2023-11-07T09:30:11.751Z,44.33
2023-11-07T09:32:46.012Z,43.85
2023-11-07T09:35:13.760Z,44.36
2023-11-07T09:37:42.125Z,44.28
2023-11-07T09:40:14.737Z,44.36
2023-11-07T09:42:42.974Z,44.54
2023-11-07T09:45:16.641Z,45.01
2023-11-07T09:47:49.601Z,44.26
2023-11-07T09:50:18.915Z,44.71
2023-11-07T09:52:49.127Z,45.14
2023-11-07T09:55:17.761Z,44.73
2023-11-07T09:58:09.208Z,45.73
2023-11-07T10:00:46.796Z,45.33
2023-11-07T10:03:16.441Z,45.92
2023-11-07T10:05:48.506Z,46.11
2023-11-07T10:08:17.834Z,46.06
2023-11-07T10:11:05.547Z,46.00
2023-11-07T10:13:33.598Z,46.49
2023-11-07T10:18:51.707Z,46.71
2023-11-07T10:21:33.527Z,46.32
2023-11-07T10:24:01.787Z,46.90
2023-11-07T10:26:33.000Z,47.17
2023-11-07T10:29:18.159Z,48.07
2023-11-07T10:32:05.809Z,48.19
2023-11-07T10:34:34.139Z,48.03
2023-11-07T10:37:02.364Z,48.62
2023-11-07T10:39:31.873Z,48.71
2023-11-07T10:42:20.391Z,48.73
2023-11-07T10:44:51.452Z,49.60
2023-11-07T10:47:21.525Z,50.29
2023-11-07T10:49:50.724Z,50.08
2023-11-07T10:52:19.733Z,50.17
2023-11-07T10:54:47.628Z,50.52
2023-11-07T10:57:23.503Z,51.04
2023-11-07T10:59:54.833Z,51.05
2023-11-07T11:02:25.386Z,51.27
2023-11-07T11:04:53.519Z,51.01
2023-11-07T11:07:22.513Z,51.57
2023-11-07T11:09:50.850Z,52.09
2023-11-07T11:12:22.601Z,52.65
2023-11-07T11:14:52.585Z,52.97
2023-11-07T11:17:40.049Z,53.39
2023-11-07T11:20:28.190Z,53.52
2023-11-07T11:23:09.105Z,54.77
2023-11-07T11:25:53.694Z,54.65
2023-11-07T11:28:38.423Z,54.73
2023-11-07T11:31:06.658Z,54.73
2023-11-07T11:33:37.466Z,55.50
2023-11-07T11:36:45.627Z,56.00
2023-11-07T11:39:46.925Z,56.06
2023-11-07T11:42:14.846Z,56.54
2023-11-07T11:44:42.660Z,56.34
2023-11-07T11:47:49.445Z,56.65
2023-11-07T11:50:17.563Z,57.37
2023-11-07T11:52:45.812Z,57.50
2023-11-07T11:55:14.590Z,57.50
2023-11-07T11:58:12.802Z,58.07
2023-11-07T12:00:43.342Z,58.83
2023-11-07T12:03:17.899Z,59.11
2023-11-07T12:06:07.195Z,60.09
2023-11-07T12:08:37.285Z,60.52
2023-11-07T12:11:06.601Z,60.59
2023-11-07T12:13:35.305Z,61.57
2023-11-07T12:16:15.034Z,61.95
2023-11-07T12:18:43.929Z,61.59
2023-11-07T12:21:12.190Z,62.36
2023-11-07T12:23:39.875Z,62.52
2023-11-07T12:26:09.552Z,62.27
2023-11-07T12:28:43.782Z,63.39
2023-11-07T12:31:22.972Z,64.12
2023-11-07T12:33:53.575Z,64.58
2023-11-07T12:36:21.524Z,65.06
2023-11-07T12:38:49.769Z,64.64
2023-11-07T12:41:17.862Z,65.50
2023-11-07T12:43:47.372Z,66.64
2023-11-07T12:46:18.203Z,66.70
2023-11-07T12:48:46.484Z,67.07
2023-11-07T12:51:23.013Z,67.79
2023-11-07T12:53:55.032Z,67.64
2023-11-07T12:56:22.800Z,67.93
2023-11-07T12:58:50.409Z,68.20
2023-11-07T13:01:18.053Z,68.80
2023-11-07T13:03:45.851Z,69.67
2023-11-07T13:06:20.647Z,70.13
2023-11-07T13:08:48.953Z,70.17
2023-11-07T13:11:19.992Z,71.12
2023-11-07T13:13:51.064Z,71.27
2023-11-07T13:16:20.868Z,71.49
2023-11-07T13:18:50.929Z,71.66
2023-11-07T13:21:18.953Z,72.75
2023-11-07T13:23:46.903Z,73.35
2023-11-07T13:26:15.971Z,73.33
2023-11-07T13:28:45.076Z,73.11
2023-11-07T13:31:15.219Z,73.83
2023-11-07T13:33:47.493Z,74.34
2023-11-07T13:36:17.059Z,74.45
2023-11-07T13:38:49.140Z,75.05
2023-11-07T13:41:17.836Z,76.13
2023-11-07T13:43:46.085Z,76.30
2023-11-07T13:46:20.683Z,76.14
2023-11-07T13:48:53.359Z,76.24
2023-11-07T13:51:24.295Z,76.16
2023-11-07T13:53:52.755Z,77.36
2023-11-07T13:56:21.373Z,77.95
2023-11-07T13:58:50.219Z,78.35
2023-11-07T14:01:18.206Z,78.94
2023-11-07T14:03:48.246Z,79.57
2023-11-07T14:06:19.327Z,79.85
2023-11-07T14:08:47.364Z,80.53
2023-11-07T14:11:18.463Z,81.01
2023-11-07T14:13:51.971Z,80.45
2023-11-07T14:16:21.308Z,81.40
2023-11-07T14:18:51.236Z,81.73
2023-11-07T14:21:23.225Z,82.77
2023-11-07T14:23:51.340Z,83.62
2023-11-07T14:26:19.169Z,84.40
2023-11-07T14:28:55.229Z,84.20
2023-11-07T14:31:31.145Z,84.65
2023-11-07T14:34:00.781Z,86.24
2023-11-07T14:36:29.503Z,85.44
2023-11-07T14:38:57.593Z,86.72
2023-11-07T14:41:25.286Z,87.65
2023-11-07T14:43:53.064Z,88.31
2023-11-07T14:46:21.364Z,88.63
2023-11-07T14:48:49.122Z,88.20
2023-11-07T14:51:18.786Z,88.85
2023-11-07T14:53:46.623Z,89.81
2023-11-07T14:56:14.873Z,90.19
2023-11-07T14:58:42.489Z,91.19
2023-11-07T15:01:12.167Z,91.51
2023-11-07T15:03:42.769Z,92.06
2023-11-07T15:06:24.473Z,93.23
2023-11-07T15:08:59.378Z,93.07
2023-11-07T15:12:16.981Z,93.55
2023-11-07T15:14:49.680Z,93.59
2023-11-07T15:17:20.899Z,94.62
2023-11-07T15:19:49.034Z,94.88
2023-11-07T15:22:25.092Z,96.62
2023-11-07T15:24:53.266Z,95.84
2023-11-07T15:27:26.935Z,94.94
2023-11-07T15:30:01.009Z,96.50
2023-11-07T15:32:32.119Z,97.87
2023-11-07T15:35:00.306Z,98.67
2023-11-07T15:37:28.086Z,99.65
2023-11-07T15:39:55.676Z,100.00
2023-11-07T15:42:23.469Z,100.00
2023-11-07T15:44:53.299Z,100.00
2023-11-07T15:47:21.047Z,100.00
2023-11-07T15:49:48.713Z,100.00
2023-11-07T15:52:17.261Z,100.00
2023-11-07T15:54:45.164Z,100.00
2023-11-07T15:57:14.435Z,100.00
2023-11-07T15:59:45.253Z,100.00
2023-11-07T16:02:17.342Z,100.00
2023-11-07T16:04:57.983Z,100.00
2023-11-07T16:07:25.695Z,100.00
2023-11-07T16:10:20.030Z,100.00
2023-11-07T16:12:54.104Z,100.00
2023-11-07T16:15:34.973Z,100.00
2023-11-07T16:18:09.609Z,100.00
2023-11-07T16:20:38.782Z,100.00
2023-11-07T16:23:10.119Z,100.00
2023-11-07T16:25:38.841Z,100.00
2023-11-07T16:28:10.408Z,100.00
2023-11-07T16:30:40.317Z,100.00
2023-11-07T16:33:13.861Z,100.00
2023-11-07T16:35:42.003Z,100.00
2023-11-07T16:38:09.957Z,100.00
2023-11-07T16:40:37.894Z,100.00
2023-11-07T16:43:06.747Z,100.00
2023-11-07T16:45:35.297Z,100.00
2023-11-07T16:48:05.636Z,100.00
2023-11-07T16:50:34.508Z,100.00
2023-11-07T16:53:02.328Z,100.00
2023-11-07T16:55:30.132Z,100.00
2023-11-07T16:57:59.961Z,100.00
2023-11-07T17:00:27.982Z,100.00
2023-11-07T17:02:58.310Z,100.00
2023-11-07T17:05:26.204Z,100.00
2023-11-07T17:07:56.628Z,100.00
2023-11-07T17:10:28.867Z,100.00
2023-11-07T17:12:58.015Z,100.00
2023-11-07T17:15:27.255Z,100.00
2023-11-07T17:17:56.649Z,100.00
2023-11-07T17:20:57.581Z,100.00
2023-11-07T17:23:28.134Z,100.00
2023-11-07T17:26:10.146Z,100.00
2023-11-07T17:28:48.566Z,100.00
2023-11-07T17:31:18.299Z,100.00
2023-11-07T17:33:48.189Z,100.00
2023-11-07T17:36:16.884Z,100.00
2023-11-07T17:38:57.052Z,100.00
2023-11-07T17:41:34.828Z,100.00
2023-11-07T17:44:06.705Z,100.00
2023-11-07T17:46:35.968Z,100.00
2023-11-07T17:49:05.740Z,100.00
2023-11-07T17:51:33.576Z,100.00
2023-11-07T17:54:01.482Z,100.00
2023-11-07T17:56:29.800Z,100.00
2023-11-07T17:58:57.356Z,100.00
2023-11-07T18:01:25.032Z,100.00
2023-11-07T18:03:53.003Z,100.00
2023-11-07T18:06:23.412Z,100.00
2023-11-07T18:08:54.834Z,100.00
2023-11-07T18:11:23.170Z,100.00
2023-11-07T18:13:53.529Z,100.00
2023-11-07T18:19:24.697Z,100.00
2023-11-07T18:22:02.674Z,100.00
2023-11-07T18:24:34.748Z,100.00
2023-11-07T18:27:02.832Z,100.00
2023-11-07T18:29:33.689Z,100.00
2023-11-07T18:32:03.087Z,100.00
2023-11-07T18:34:30.965Z,100.00
2023-11-07T18:37:00.798Z,100.00
2023-11-07T18:39:30.793Z,100.00
2023-11-07T18:42:01.580Z,100.00
2023-11-07T18:44:32.405Z,100.00
2023-11-07T18:47:00.408Z,100.00
2023-11-07T18:49:35.349Z,100.00
2023-11-07T18:52:04.474Z,100.00
2023-11-07T18:54:32.520Z,100.00
2023-11-07T18:57:00.378Z,100.00
2023-11-07T18:59:36.958Z,100.00
2023-11-07T19:02:11.369Z,100.00
2023-11-07T19:04:39.389Z,100.00
2023-11-07T19:07:09.334Z,100.00
2023-11-07T19:09:37.515Z,100.00
2023-11-07T19:12:08.075Z,100.00
2023-11-07T19:14:36.021Z,100.00
2023-11-07T19:17:03.609Z,100.00
2023-11-07T19:19:31.502Z,100.00
2023-11-07T19:22:09.333Z,100.00
2023-11-07T19:24:38.679Z,100.00
2023-11-07T19:27:06.731Z,100.00
2023-11-07T19:29:34.803Z,100.00
2023-11-07T19:32:04.018Z,100.00
2023-11-07T19:34:32.053Z,100.00
2023-11-07T19:37:00.062Z,100.00
2023-11-07T19:39:30.460Z,100.00
2023-11-07T19:42:03.361Z,100.00
2023-11-07T19:44:32.094Z,100.00
2023-11-07T19:46:59.784Z,100.00
2023-11-07T19:49:29.044Z,100.00
2023-11-07T19:51:59.553Z,100.00
2023-11-07T19:54:28.170Z,100.00
2023-11-07T19:56:56.245Z,100.00
2023-11-07T19:59:24.959Z,100.00
2023-11-07T20:01:53.945Z,100.00
2023-11-07T20:04:22.031Z,100.00
2023-11-07T20:06:50.813Z,100.00
2023-11-07T20:09:19.480Z,100.00
2023-11-07T20:11:48.047Z,100.00
2023-11-07T20:14:15.703Z,100.00
2023-11-07T20:16:43.588Z,100.00
2023-11-07T20:19:11.239Z,100.00
2023-11-07T20:21:38.897Z,100.00
2023-11-07T20:24:07.340Z,100.00
2023-11-07T20:26:35.145Z,100.00
2023-11-07T20:29:02.809Z,100.00
2023-11-07T20:31:30.653Z,100.00
2023-11-07T20:33:58.304Z,100.00
2023-11-07T20:36:26.863Z,100.00
2023-11-07T20:38:55.103Z,100.00
2023-11-07T20:41:23.170Z,100.00
2023-11-07T20:43:56.265Z,100.00
2023-11-07T20:48:55.322Z,100.00
2023-11-07T20:51:23.225Z,100.00
2023-11-07T20:53:50.918Z,100.00
2023-11-07T20:56:21.060Z,100.00
2023-11-07T20:58:48.578Z,100.00
2023-11-07T21:01:17.907Z,100.00
2023-11-07T21:03:45.613Z,100.00
2023-11-07T21:06:13.419Z,100.00
2023-11-07T21:08:41.551Z,100.00
2023-11-07T21:11:31.128Z,100.00
2023-11-07T21:14:09.409Z,100.00
2023-11-07T21:16:37.981Z,100.00
2023-11-07T21:19:06.859Z,100.00
2023-11-07T21:21:34.539Z,100.00
2023-11-07T21:24:02.258Z,100.00
2023-11-07T21:26:29.953Z,100.00
2023-11-07T21:28:57.902Z,100.00
2023-11-07T21:31:25.613Z,100.00
2023-11-07T21:33:53.516Z,100.00
2023-11-07T21:36:21.152Z,100.00
2023-11-07T21:38:49.539Z,100.00
2023-11-07T21:41:17.641Z,100.00
2023-11-07T21:43:46.149Z,100.00
2023-11-07T21:46:13.982Z,100.00
2023-11-07T21:48:41.691Z,100.00
2023-11-07T21:51:11.672Z,100.00
2023-11-07T21:53:39.723Z,100.00
2023-11-07T21:56:07.372Z,100.00
2023-11-07T21:58:35.036Z,100.00
2023-11-07T22:01:02.781Z,100.00
2023-11-07T22:03:31.208Z,100.00
2023-11-07T22:06:00.007Z,100.00
2023-11-07T22:08:27.603Z,100.00
2023-11-07T22:10:55.340Z,100.00
2023-11-07T22:13:24.344Z,100.00
2023-11-07T22:15:53.281Z,100.00
2023-11-07T22:18:20.969Z,100.00
2023-11-07T22:20:48.783Z,100.00
2023-11-07T22:23:16.654Z,100.00
2023-11-07T22:25:44.290Z,100.00
2023-11-07T22:28:12.000Z,100.00
2023-11-07T22:30:39.855Z,100.00
2023-11-07T22:33:08.644Z,100.00
2023-11-07T22:35:36.706Z,100.00
2023-11-07T22:38:06.927Z,100.00
2023-11-07T22:40:35.333Z,100.00
2023-11-07T22:43:03.089Z,100.00
2023-11-07T22:45:31.434Z,100.00
2023-11-07T22:47:59.039Z,100.00
2023-11-07T22:50:26.829Z,100.00
2023-11-07T22:52:54.442Z,100.00
2023-11-07T22:55:22.204Z,100.00
2023-11-07T22:57:49.898Z,100.00
2023-11-07T23:00:29.218Z,100.00
2023-11-07T23:03:01.584Z,100.00
2023-11-07T23:05:29.428Z,100.00
2023-11-07T23:07:57.151Z,100.00
2023-11-07T23:10:25.064Z,100.00
2023-11-07T23:12:58.965Z,100.00
2023-11-07T23:15:39.227Z,100.00
2023-11-07T23:18:08.691Z,100.00
2023-11-07T23:20:42.452Z,100.00
2023-11-07T23:23:21.380Z,100.00
2023-11-07T23:25:52.429Z,100.00
2023-11-07T23:28:21.256Z,100.00
2023-11-07T23:30:51.444Z,100.00
2023-11-07T23:33:19.670Z,100.00
2023-11-07T23:35:47.643Z,100.00
2023-11-07T23:38:15.988Z,100.00
2023-11-07T23:40:45.332Z,100.00
2023-11-07T23:43:14.631Z,100.00
2023-11-07T23:45:42.317Z,100.00
2023-11-07T23:48:10.552Z,100.00
2023-11-07T23:50:38.687Z,100.00
2023-11-07T23:53:06.370Z,100.00
2023-11-07T23:55:35.521Z,100.00
2023-11-07T23:58:03.242Z,100.00
